createdAt,value
2019-04-06T00:00:37.015Z,63.76
2019-04-06T00:03:07.005Z,63.41
2019-04-06T00:05:37.011Z,63.59
2019-04-06T00:08:06.933Z,63.88
2019-04-06T00:10:36.833Z,63.76
2019-04-06T00:13:06.712Z,63.37
2019-04-06T00:15:36.627Z,62.73
2019-04-06T00:18:06.576Z,62.10
2019-04-06T00:20:36.482Z,61.86
2019-04-06T00:23:06.454Z,62.05
2019-04-06T00:25:44.258Z,61.77
2019-04-06T00:28:07.957Z,61.66
2019-04-06T00:30:55.723Z,61.54
2019-04-06T00:33:25.655Z,61.33
2019-04-06T00:35:55.630Z,61.37
2019-04-06T00:38:25.620Z,61.56
2019-04-06T00:40:55.612Z,61.25
2019-04-06T00:43:25.530Z,61.52
2019-04-06T00:45:55.436Z,62.31
2019-04-06T00:48:25.331Z,62.87
2019-04-06T00:50:55.247Z,62.65
2019-04-06T00:53:25.076Z,63.18
2019-04-06T00:55:56.336Z,62.63
2019-04-06T00:58:26.315Z,62.58
2019-04-06T01:00:56.214Z,62.71
2019-04-06T01:03:26.141Z,62.44
2019-04-06T01:05:56.042Z,62.42
2019-04-06T01:08:25.919Z,62.84
2019-04-06T01:10:55.844Z,63.28
2019-04-06T01:13:25.679Z,62.88
2019-04-06T01:15:55.592Z,62.83
2019-04-06T01:18:25.622Z,62.97
2019-04-06T01:20:56.613Z,63.48
2019-04-06T01:23:26.541Z,64.40
2019-04-06T01:26:06.697Z,64.48
2019-04-06T01:28:28.221Z,64.28
2019-04-06T01:30:58.189Z,64.21
2019-04-06T01:33:28.041Z,63.19
2019-04-06T01:35:58.021Z,63.20
2019-04-06T01:38:27.922Z,64.07
2019-04-06T01:40:57.849Z,64.03
2019-04-06T01:43:27.724Z,63.22
2019-04-06T01:45:57.698Z,63.41
2019-04-06T01:48:27.681Z,64.10
2019-04-06T01:50:57.643Z,64.50
2019-04-06T01:53:27.501Z,64.60
2019-04-06T01:55:57.760Z,64.61
2019-04-06T01:58:27.660Z,64.54
2019-04-06T02:01:11.003Z,64.53
2019-04-06T02:03:40.908Z,63.66
2019-04-06T02:06:10.739Z,63.30
2019-04-06T02:08:40.636Z,63.85
2019-04-06T02:11:10.640Z,64.42
2019-04-06T02:13:40.539Z,64.26
2019-04-06T02:16:10.431Z,64.09
2019-04-06T02:18:41.412Z,64.53
2019-04-06T02:21:11.298Z,64.46
2019-04-06T02:23:41.274Z,64.30
2019-04-06T02:26:11.095Z,64.40
2019-04-06T02:28:40.968Z,64.34
2019-04-06T02:31:14.596Z,63.91
2019-04-06T02:33:55.959Z,63.64
2019-04-06T02:36:43.521Z,63.71
2019-04-06T02:39:20.189Z,62.71
2019-04-06T02:41:55.017Z,63.07
2019-04-06T02:44:25.018Z,63.41
2019-04-06T02:46:54.994Z,63.56
2019-04-06T02:49:24.903Z,64.13
2019-04-06T02:51:54.809Z,64.30
2019-04-06T02:54:24.663Z,63.78
2019-04-06T02:56:54.578Z,64.04
2019-04-06T02:59:25.490Z,64.46
2019-04-06T03:01:55.477Z,64.09
2019-04-06T03:04:25.597Z,64.14
2019-04-06T03:06:55.607Z,63.73
2019-04-06T03:09:26.529Z,63.91
2019-04-06T03:11:56.407Z,63.80
2019-04-06T03:14:26.432Z,64.01
2019-04-06T03:16:56.384Z,64.18
2019-04-06T03:19:26.286Z,63.78
2019-04-06T03:21:56.260Z,63.83
2019-04-06T03:24:26.236Z,64.69
2019-04-06T03:27:01.975Z,64.65
2019-04-06T03:29:27.734Z,64.54
2019-04-06T03:31:57.647Z,64.38
2019-04-06T03:34:27.840Z,63.54
2019-04-06T03:36:57.707Z,63.64
2019-04-06T03:39:27.646Z,64.07
2019-04-06T03:41:57.597Z,63.48
2019-04-06T03:44:27.510Z,62.86
2019-04-06T03:46:57.398Z,63.05
2019-04-06T03:49:27.478Z,62.91
2019-04-06T03:51:57.461Z,62.45
2019-04-06T03:54:27.351Z,62.67
2019-04-06T03:56:57.530Z,62.92
2019-04-06T03:59:27.658Z,62.81
2019-04-06T04:01:57.473Z,62.85
2019-04-06T04:04:27.515Z,62.81
2019-04-06T04:06:57.316Z,63.41
2019-04-06T04:09:27.255Z,63.66
2019-04-06T04:11:57.355Z,64.58
2019-04-06T04:14:28.787Z,64.80
2019-04-06T04:16:58.761Z,64.65
2019-04-06T04:19:28.798Z,64.59
2019-04-06T04:21:58.990Z,64.07
2019-04-06T04:24:28.771Z,63.84
2019-04-06T04:26:58.614Z,64.09
2019-04-06T04:29:28.449Z,64.08
2019-04-06T04:31:58.371Z,63.87
2019-04-06T04:34:28.275Z,64.01
2019-04-06T04:36:58.175Z,64.20
2019-04-06T04:39:28.044Z,63.71
2019-04-06T04:41:58.000Z,63.89
2019-04-06T04:44:27.911Z,63.67
2019-04-06T04:46:57.831Z,64.01
2019-04-06T04:49:27.746Z,64.16
2019-04-06T04:51:57.712Z,64.36
2019-04-06T04:54:27.607Z,64.28
2019-04-06T04:56:57.466Z,64.19
2019-04-06T04:59:27.413Z,64.01
2019-04-06T05:01:57.217Z,63.95
2019-04-06T05:04:27.119Z,64.85
2019-04-06T05:06:56.947Z,64.86
2019-04-06T05:09:26.898Z,64.83
2019-04-06T05:11:56.729Z,64.49
2019-04-06T05:14:57.511Z,64.07
2019-04-06T05:17:29.459Z,63.70
2019-04-06T05:19:59.455Z,63.95
2019-04-06T05:22:29.530Z,64.38
2019-04-06T05:24:59.505Z,64.05
2019-04-06T05:27:29.489Z,63.95
2019-04-06T05:30:00.281Z,63.67
2019-04-06T05:32:31.180Z,63.47
2019-04-06T05:35:01.021Z,63.37
2019-04-06T05:37:30.855Z,63.05
2019-04-06T05:40:00.855Z,62.61
2019-04-06T05:42:30.770Z,63.92
2019-04-06T05:45:00.596Z,64.37
2019-04-06T05:47:30.593Z,64.53
2019-04-06T05:50:00.636Z,64.75
2019-04-06T05:52:30.679Z,64.48
2019-04-06T05:55:00.586Z,64.15
2019-04-06T05:57:32.128Z,64.00
2019-04-06T06:00:03.076Z,63.69
2019-04-06T06:02:32.923Z,63.48
2019-04-06T06:05:02.927Z,63.00
2019-04-06T06:07:33.902Z,62.15
2019-04-06T06:10:03.927Z,60.97
2019-04-06T06:12:33.841Z,60.98
2019-04-06T06:15:04.397Z,61.50
2019-04-06T06:17:36.392Z,61.72
2019-04-06T06:20:06.475Z,62.01
2019-04-06T06:22:36.447Z,62.17
2019-04-06T06:25:06.709Z,61.67
2019-04-06T06:27:36.619Z,61.35
2019-04-06T06:30:08.532Z,61.38
2019-04-06T06:32:38.522Z,61.03
2019-04-06T06:35:08.963Z,61.18
2019-04-06T06:37:39.105Z,61.03
2019-04-06T06:40:09.394Z,61.03
2019-04-06T06:42:39.392Z,61.18
2019-04-06T06:45:09.828Z,61.13
2019-04-06T06:47:39.980Z,60.39
2019-04-06T06:50:10.074Z,60.03
2019-04-06T06:52:40.182Z,59.50
2019-04-06T06:55:10.300Z,59.39
2019-04-06T06:57:40.411Z,59.05
2019-04-06T07:00:12.479Z,60.58
2019-04-06T07:02:42.494Z,60.63
2019-04-06T07:05:12.674Z,60.73
2019-04-06T07:07:42.601Z,60.37
2019-04-06T07:10:12.590Z,60.23
2019-04-06T07:12:42.526Z,60.14
2019-04-06T07:15:12.642Z,59.83
2019-04-06T07:17:42.696Z,59.06
2019-04-06T07:20:13.197Z,59.42
2019-04-06T07:22:43.278Z,58.90
2019-04-06T07:25:13.460Z,59.31
2019-04-06T07:27:43.430Z,60.19
2019-04-06T07:30:13.768Z,59.95
2019-04-06T07:32:43.893Z,59.64
2019-04-06T07:35:14.328Z,58.28
2019-04-06T07:37:45.210Z,58.39
2019-04-06T07:40:15.535Z,57.55
2019-04-06T07:42:45.953Z,58.37
2019-04-06T07:45:17.800Z,58.61
2019-04-06T07:47:47.627Z,57.85
2019-04-06T07:50:17.714Z,58.10
2019-04-06T07:52:47.744Z,57.66
2019-04-06T07:55:20.524Z,57.84
2019-04-06T07:57:50.367Z,57.40
2019-04-06T08:00:20.643Z,56.20
2019-04-06T08:02:50.742Z,56.11
2019-04-06T08:05:20.657Z,55.67
2019-04-06T08:07:50.809Z,54.95
2019-04-06T08:10:20.692Z,55.96
2019-04-06T08:12:50.537Z,57.07
2019-04-06T08:15:20.464Z,57.36
2019-04-06T08:17:50.508Z,56.73
2019-04-06T08:20:20.646Z,55.73
2019-04-06T08:22:50.661Z,53.77
2019-04-06T08:25:20.673Z,53.03
2019-04-06T08:27:50.683Z,54.80
2019-04-06T08:30:20.878Z,52.95
2019-04-06T08:32:50.769Z,52.49
2019-04-06T08:35:25.758Z,53.02
2019-04-06T08:37:52.537Z,52.18
2019-04-06T08:40:23.615Z,53.89
2019-04-06T08:42:53.615Z,55.13
2019-04-06T08:45:23.594Z,54.27
2019-04-06T08:47:53.745Z,52.41
2019-04-06T08:50:23.648Z,52.47
2019-04-06T08:52:53.485Z,51.98
2019-04-06T08:55:23.346Z,53.68
2019-04-06T08:57:53.396Z,54.31
2019-04-06T09:00:23.517Z,53.05
2019-04-06T09:02:53.900Z,53.66
2019-04-06T09:05:23.911Z,53.26
2019-04-06T09:07:53.873Z,53.65
2019-04-06T09:10:24.353Z,52.77
2019-04-06T09:12:55.257Z,53.65
2019-04-06T09:15:25.147Z,53.61
2019-04-06T09:17:55.210Z,52.48
2019-04-06T09:20:25.230Z,52.52
2019-04-06T09:22:55.124Z,52.97
2019-04-06T09:25:25.016Z,53.61
2019-04-06T09:27:54.863Z,54.76
2019-04-06T09:30:24.907Z,55.34
2019-04-06T09:32:54.954Z,55.33
2019-04-06T09:35:24.944Z,55.96
2019-04-06T09:37:54.856Z,55.16
2019-04-06T09:40:24.726Z,53.90
2019-04-06T09:42:54.641Z,54.57
2019-04-06T09:45:42.107Z,54.92
2019-04-06T09:48:21.392Z,53.73
2019-04-06T09:51:11.794Z,52.55
2019-04-06T09:54:12.877Z,51.45
2019-04-06T09:56:55.925Z,51.59
2019-04-06T09:59:37.033Z,51.80
2019-04-06T10:02:16.978Z,51.24
2019-04-06T10:05:14.188Z,51.65
2019-04-06T10:08:05.756Z,50.63
2019-04-06T10:10:48.197Z,51.05
2019-04-06T10:13:39.891Z,50.92
2019-04-06T10:16:28.070Z,50.37
2019-04-06T10:19:16.074Z,48.94
2019-04-06T10:21:58.798Z,47.82
2019-04-06T10:24:47.703Z,48.11
2019-04-06T10:27:51.801Z,49.58
2019-04-06T10:30:35.702Z,48.66
2019-04-06T10:33:24.663Z,48.41
2019-04-06T10:36:14.675Z,48.75
2019-04-06T10:39:02.534Z,47.32
2019-04-06T10:42:02.451Z,47.29
2019-04-06T10:45:00.515Z,46.27
2019-04-06T10:48:00.268Z,45.63
2019-04-06T10:50:49.577Z,46.19
2019-04-06T10:53:32.794Z,48.59
2019-04-06T10:56:37.012Z,47.90
2019-04-06T10:59:40.994Z,46.40
2019-04-06T11:02:28.806Z,45.69
2019-04-06T11:05:30.141Z,45.92
2019-04-06T11:08:19.184Z,47.53
2019-04-06T11:11:08.106Z,48.77
2019-04-06T11:14:03.074Z,46.86
2019-04-06T11:16:57.929Z,46.39
2019-04-06T11:19:45.669Z,47.03
2019-04-06T11:22:27.578Z,48.28
2019-04-06T11:25:19.661Z,46.39
2019-04-06T11:27:56.138Z,46.82
2019-04-06T11:31:03.300Z,46.13
2019-04-06T11:34:01.187Z,44.98
2019-04-06T11:36:55.732Z,43.49
2019-04-06T11:39:56.813Z,45.33
2019-04-06T11:42:33.892Z,43.48
2019-04-06T11:45:19.193Z,43.18
2019-04-06T11:47:56.579Z,45.53
2019-04-06T11:50:39.606Z,44.97
2019-04-06T11:53:46.841Z,43.56
2019-04-06T11:56:34.472Z,44.16
2019-04-06T11:59:22.461Z,42.68
2019-04-06T12:02:26.651Z,41.91
2019-04-06T12:05:21.740Z,41.88
2019-04-06T12:08:25.783Z,42.34
2019-04-06T12:11:13.417Z,42.44
2019-04-06T12:13:51.870Z,43.74
2019-04-06T12:16:52.891Z,43.90
2019-04-06T12:19:49.768Z,44.44
2019-04-06T12:22:44.644Z,43.33
2019-04-06T12:25:29.841Z,43.34
2019-04-06T12:28:21.366Z,42.44
2019-04-06T12:31:18.028Z,42.28
2019-04-06T12:33:58.313Z,42.88
2019-04-06T12:36:37.451Z,41.61
2019-04-06T12:39:27.534Z,41.25
2019-04-06T12:42:08.504Z,40.58
2019-04-06T12:44:49.686Z,39.32
2019-04-06T12:47:28.599Z,41.01
2019-04-06T12:50:26.859Z,40.26
2019-04-06T12:53:27.574Z,39.85
2019-04-06T12:56:19.185Z,40.20
2019-04-06T12:59:20.168Z,41.62
2019-04-06T13:02:08.197Z,39.96
2019-04-06T13:04:59.945Z,39.85
2019-04-06T13:07:48.198Z,39.56
2019-04-06T13:10:36.139Z,37.93
2019-04-06T13:13:27.911Z,38.04
2019-04-06T13:16:20.230Z,38.81
2019-04-06T13:19:15.322Z,38.87
2019-04-06T13:22:22.529Z,37.03
2019-04-06T13:25:01.107Z,36.97
2019-04-06T13:27:52.964Z,37.81
2019-04-06T13:31:02.102Z,38.48
2019-04-06T13:33:31.786Z,39.73
2019-04-06T13:36:12.307Z,37.70
2019-04-06T13:38:49.434Z,37.75
2019-04-06T13:41:34.496Z,36.55
2019-04-06T13:44:12.539Z,36.80
2019-04-06T13:47:10.779Z,36.30
2019-04-06T13:49:58.742Z,37.21
2019-04-06T13:52:46.614Z,36.22
2019-04-06T13:55:32.440Z,37.27
2019-04-06T13:58:11.176Z,39.17
2019-04-06T14:01:16.015Z,38.36
2019-04-06T14:03:57.090Z,38.46
2019-04-06T14:06:44.850Z,37.79
2019-04-06T14:09:33.447Z,37.08
2019-04-06T14:12:09.616Z,37.01
2019-04-06T14:14:46.516Z,38.44
2019-04-06T14:17:25.333Z,38.91
2019-04-06T14:20:14.231Z,39.75
2019-04-06T14:22:54.569Z,40.17
2019-04-06T14:25:46.201Z,39.94
2019-04-06T14:28:28.679Z,39.65
2019-04-06T14:31:27.399Z,39.79
2019-04-06T14:34:10.500Z,39.41
2019-04-06T14:37:08.705Z,39.87
2019-04-06T14:39:56.325Z,39.69
2019-04-06T14:42:43.935Z,38.25
2019-04-06T14:45:30.240Z,38.83
2019-04-06T14:48:12.514Z,38.92
2019-04-06T14:50:51.951Z,38.98
2019-04-06T14:53:29.225Z,38.88
2019-04-06T14:56:20.976Z,38.57
2019-04-06T14:59:09.066Z,38.32
2019-04-06T15:02:07.253Z,38.37
2019-04-06T15:04:55.030Z,38.95
2019-04-06T15:07:30.951Z,38.11
2019-04-06T15:10:11.939Z,38.37
2019-04-06T15:12:59.829Z,36.90
2019-04-06T15:15:47.323Z,37.45
2019-04-06T15:18:35.277Z,37.39
2019-04-06T15:21:21.539Z,37.54
2019-04-06T15:24:13.972Z,37.72
2019-04-06T15:27:08.835Z,37.60
2019-04-06T15:30:01.013Z,37.87
2019-04-06T15:32:44.749Z,38.80
2019-04-06T15:35:32.464Z,38.95
2019-04-06T15:38:21.355Z,39.98
2019-04-06T15:41:06.393Z,38.53
2019-04-06T15:43:58.343Z,38.23
2019-04-06T15:46:49.446Z,38.82
2019-04-06T15:49:50.564Z,39.46
2019-04-06T15:52:38.406Z,41.03
2019-04-06T15:55:25.870Z,41.31
2019-04-06T15:58:17.763Z,41.74
2019-04-06T16:01:05.317Z,41.78
2019-04-06T16:03:48.837Z,41.49
2019-04-06T16:06:50.462Z,41.94
2019-04-06T16:09:38.940Z,41.78
2019-04-06T16:12:33.741Z,42.53
2019-04-06T16:15:18.822Z,42.10
2019-04-06T16:18:07.717Z,42.07
2019-04-06T16:20:59.676Z,42.16
2019-04-06T16:24:01.533Z,42.66
2019-04-06T16:26:34.152Z,42.67
2019-04-06T16:29:26.072Z,42.16
2019-04-06T16:32:32.963Z,42.63
2019-04-06T16:35:17.249Z,42.77
2019-04-06T16:38:00.535Z,43.02
2019-04-06T16:40:37.095Z,42.00
2019-04-06T16:43:16.558Z,41.77
2019-04-06T16:45:53.924Z,41.43
2019-04-06T16:48:37.876Z,41.10
2019-04-06T16:51:29.823Z,41.18
2019-04-06T16:54:33.962Z,42.01
2019-04-06T16:57:22.721Z,41.20
2019-04-06T17:00:20.084Z,41.80
2019-04-06T17:03:10.908Z,41.84
2019-04-06T17:06:11.828Z,42.08
2019-04-06T17:08:52.360Z,42.96
2019-04-06T17:11:38.325Z,43.20
2019-04-06T17:14:27.426Z,43.97
2019-04-06T17:17:06.421Z,44.68
2019-04-06T17:19:53.949Z,45.35
2019-04-06T17:22:29.392Z,45.36
2019-04-06T17:25:14.056Z,46.27
2019-04-06T17:27:52.560Z,46.39
2019-04-06T17:30:28.006Z,47.00
2019-04-06T17:33:16.936Z,46.69
2019-04-06T17:35:54.777Z,46.88
2019-04-06T17:38:52.475Z,47.77
2019-04-06T17:41:50.646Z,47.75
2019-04-06T17:44:32.502Z,47.87
2019-04-06T17:47:24.372Z,47.89
2019-04-06T17:50:22.019Z,48.33
2019-04-06T17:53:06.527Z,48.51
2019-04-06T17:55:54.889Z,49.05
2019-04-06T17:58:50.708Z,49.66
2019-04-06T18:01:44.592Z,49.57
2019-04-06T18:04:28.139Z,49.76
2019-04-06T18:07:15.101Z,50.03
2019-04-06T18:10:03.349Z,49.93
2019-04-06T18:12:48.631Z,50.20
2019-04-06T18:15:18.802Z,50.86
2019-04-06T18:17:49.407Z,50.95
2019-04-06T18:20:19.685Z,50.93
2019-04-06T18:22:50.148Z,51.30
2019-04-06T18:25:20.269Z,51.39
2019-04-06T18:27:50.558Z,51.70
2019-04-06T18:30:21.291Z,51.87
2019-04-06T18:33:00.721Z,52.18
2019-04-06T18:35:27.179Z,52.22
2019-04-06T18:38:02.522Z,52.44
2019-04-06T18:40:32.671Z,52.55
2019-04-06T18:43:02.608Z,52.73
2019-04-06T18:45:33.315Z,53.17
2019-04-06T18:48:03.452Z,53.31
2019-04-06T18:50:38.034Z,53.71
2019-04-06T18:53:05.578Z,52.87
2019-04-06T18:55:35.971Z,53.00
2019-04-06T18:58:12.131Z,52.95
2019-04-06T19:00:37.638Z,53.20
2019-04-06T19:03:14.723Z,53.29
2019-04-06T19:05:39.299Z,53.25
2019-04-06T19:08:09.603Z,53.10
2019-04-06T19:10:39.937Z,53.27
2019-04-06T19:13:10.002Z,53.16
2019-04-06T19:15:39.959Z,53.31
2019-04-06T19:18:10.037Z,53.80
2019-04-06T19:20:40.780Z,53.69
2019-04-06T19:23:10.861Z,53.71
2019-04-06T19:25:41.028Z,53.69
2019-04-06T19:28:12.106Z,54.16
2019-04-06T19:30:42.010Z,54.32
2019-04-06T19:33:22.563Z,54.49
2019-04-06T19:35:43.684Z,54.69
2019-04-06T19:38:13.586Z,54.49
2019-04-06T19:40:43.839Z,55.27
2019-04-06T19:43:15.133Z,54.74
2019-04-06T19:45:45.396Z,55.21
2019-04-06T19:48:15.305Z,55.37
2019-04-06T19:50:45.298Z,55.40
2019-04-06T19:53:15.293Z,55.46
2019-04-06T19:55:45.554Z,55.75
2019-04-06T19:58:15.424Z,55.68
2019-04-06T20:00:45.659Z,55.73
2019-04-06T20:03:16.720Z,55.65
2019-04-06T20:05:46.796Z,55.62
2019-04-06T20:08:17.123Z,55.92
2019-04-06T20:10:47.903Z,55.81
2019-04-06T20:13:17.911Z,55.79
2019-04-06T20:15:47.840Z,55.95
2019-04-06T20:18:18.101Z,55.63
2019-04-06T20:20:49.499Z,55.96
2019-04-06T20:23:19.598Z,55.95
2019-04-06T20:25:50.308Z,56.33
2019-04-06T20:28:20.277Z,56.30
2019-04-06T20:30:50.129Z,56.37
2019-04-06T20:33:20.602Z,56.29
2019-04-06T20:35:50.708Z,56.26
2019-04-06T20:38:20.846Z,56.45
2019-04-06T20:40:50.827Z,56.77
2019-04-06T20:43:21.313Z,56.89
2019-04-06T20:45:51.335Z,56.69
2019-04-06T20:48:21.509Z,57.05
2019-04-06T20:50:51.406Z,56.84
2019-04-06T20:53:21.377Z,56.92
2019-04-06T20:55:51.311Z,56.78
2019-04-06T20:58:21.149Z,57.31
2019-04-06T21:00:51.266Z,57.03
2019-04-06T21:03:22.187Z,57.33
2019-04-06T21:05:52.180Z,57.05
2019-04-06T21:08:22.486Z,57.32
2019-04-06T21:10:52.427Z,57.40
2019-04-06T21:13:22.439Z,57.50
2019-04-06T21:15:52.461Z,57.61
2019-04-06T21:18:22.360Z,57.70
2019-04-06T21:20:52.271Z,57.87
2019-04-06T21:23:22.782Z,57.91
2019-04-06T21:25:52.842Z,58.15
2019-04-06T21:28:42.123Z,58.41
2019-04-06T21:31:12.664Z,58.19
2019-04-06T21:33:45.428Z,58.25
2019-04-06T21:36:14.207Z,58.45
2019-04-06T21:38:44.545Z,58.59
2019-04-06T21:41:15.001Z,58.85
2019-04-06T21:43:44.953Z,58.95
2019-04-06T21:46:15.800Z,58.83
2019-04-06T21:48:45.825Z,59.16
2019-04-06T21:51:15.903Z,59.29
2019-04-06T21:53:46.761Z,59.38
2019-04-06T21:56:16.884Z,59.21
2019-04-06T21:58:46.766Z,59.55
2019-04-06T22:01:19.795Z,59.25
2019-04-06T22:03:51.637Z,59.07
2019-04-06T22:06:24.347Z,58.89
2019-04-06T22:08:55.020Z,58.93
2019-04-06T22:11:25.003Z,59.10
2019-04-06T22:13:54.856Z,59.15
2019-04-06T22:16:24.856Z,58.88
2019-04-06T22:18:55.195Z,59.75
2019-04-06T22:21:25.070Z,55.63
2019-04-06T22:23:55.014Z,52.34
2019-04-06T22:26:25.019Z,51.39
2019-04-06T22:28:54.859Z,51.26
2019-04-06T22:31:24.775Z,50.97
2019-04-06T22:33:54.703Z,50.05
2019-04-06T22:36:24.564Z,52.13
2019-04-06T22:38:55.070Z,53.42
2019-04-06T22:41:25.098Z,54.20
2019-04-06T22:43:55.068Z,54.41
2019-04-06T22:46:25.208Z,54.70
2019-04-06T22:48:55.218Z,54.59
2019-04-06T22:51:25.026Z,54.77
2019-04-06T22:53:54.893Z,54.52
2019-04-06T22:56:24.880Z,54.72
2019-04-06T22:58:54.716Z,54.87
2019-04-06T23:01:25.534Z,55.37
2019-04-06T23:04:33.230Z,54.93
2019-04-06T23:07:07.517Z,55.00
2019-04-06T23:09:37.588Z,54.34
2019-04-06T23:12:07.496Z,54.43
2019-04-06T23:14:37.476Z,54.58
2019-04-06T23:17:07.305Z,55.09
2019-04-06T23:19:37.551Z,55.18
2019-04-06T23:22:07.562Z,55.19
2019-04-06T23:24:37.497Z,55.35
2019-04-06T23:27:07.826Z,55.37
2019-04-06T23:29:38.345Z,55.10
2019-04-06T23:32:08.252Z,56.02
2019-04-06T23:34:38.199Z,56.86
2019-04-06T23:37:08.416Z,57.14
2019-04-06T23:39:38.983Z,57.94
2019-04-06T23:42:08.897Z,57.86
2019-04-06T23:44:38.727Z,57.51
2019-04-06T23:47:08.646Z,57.80
2019-04-06T23:49:38.566Z,57.51
2019-04-06T23:52:08.529Z,57.23
2019-04-06T23:54:38.425Z,57.29
2019-04-06T23:57:08.286Z,57.42
2019-04-06T23:59:38.439Z,57.95
